Terminal Aerodrome Forecast
Issued by NWS

Home | Current Version | Previous Version | Text Only | Print | Product List | Glossary On
Versions: 1 2 3 4 5 6 7 8 9 10 11 12 13 14 15 16 17 18 19 20 21 22 23 24 25 26
032
FTUS43 KBIS 091130
TAFMOT
TAF
KMOT 091130Z 0912/1012 24005KT P6SM SCT200
     FM091700 26010KT P6SM FEW250
     FM092000 28014G23KT P6SM SCT250
     FM100300 29011G19KT P6SM SCT250 WS020/31040KT=

USA.gov is the U.S. government's official web portal to all federal, state and local government web resources and services.